Grace S — J8B4459 — position and weather

sailwx.info

Track history (hours):
 
Tides and Currents Weather Stations Pressure Air Temp Water Temp Dewpoint Dewpoint Depression Visibility Wind Speed Wind Dir Waves Ship Positions

Grace S

Last reported at 2018-Jan-07 06:01 UTC. Time now 2018-Jan-19 06:04 UTC.
Position N 37°15' E 026°54'.
Warning: this ship's position is 12 days out of date.

Length 70 m; draft 3.5 m.

Type: Cargo ship. MMSI: 377757000.

Date/timePositionNaut miles runAvg speedWind from/ knotsBaromVisibWave heightAir tempDewpointWater temp
2018-Jan-07 06:01N 37°15' E 026°54'1 7.8
2018-Jan-07 05:52N 37°16' E 026°53'4 7.8
2018-Jan-07 05:18N 37°20' E 026°50'16 7.6
2018-Jan-07 03:09N 37°34' E 026°39'1 7.6
2018-Jan-07 03:01N 37°35' E 026°38'4 7.7
2018-Jan-07 02:29N 37°38' E 026°36'15 7.5
2018-Jan-07 00:31N 37°52' E 026°28'  
2018-Jan-03 05:50N 43°51' E 028°45'3 8.1
2018-Jan-03 05:30N 43°54' E 028°45'4 8.0
2018-Jan-03 05:00N 43°58' E 028°44'4 8.0
2018-Jan-03 04:30N 44°02' E 028°44'4 7.8
2018-Jan-03 04:00N 44°05' E 028°42'4 7.3
2018-Jan-03 03:30N 44°09' E 028°40'1 2.7
2018-Jan-03 03:00N 44°09' E 028°39'0 0.0
2018-Jan-03 02:30N 44°09' E 028°39'0 0.0
2018-Jan-03 02:00N 44°09' E 028°39'0 0.0
2018-Jan-03 01:30N 44°09' E 028°39'0 0.0
2018-Jan-03 01:00N 44°09' E 028°39'0 0.0
2018-Jan-03 00:30N 44°09' E 028°39'0 0.0
2018-Jan-03 00:00N 44°09' E 028°39'0 0.0
2018-Jan-02 23:30N 44°09' E 028°39'0 0.0
2018-Jan-02 23:00N 44°09' E 028°39'0 0.0
2018-Jan-02 22:30N 44°09' E 028°39'0 0.0
2018-Jan-02 22:00N 44°09' E 028°39'0 0.0
2018-Jan-02 21:30N 44°09' E 028°39'0 0.0
2018-Jan-02 21:00N 44°09' E 028°39'0 0.0
2018-Jan-02 20:30N 44°09' E 028°39'0 0.0
2018-Jan-02 20:00N 44°09' E 028°39'0 0.0
2018-Jan-02 19:29N 44°09' E 028°39'0 0.0
2018-Jan-02 18:53N 44°09' E 028°39'0 0.0
2018-Jan-02 18:29N 44°09' E 028°39'0 0.0
2018-Jan-02 17:59N 44°09' E 028°39'0 0.0
2018-Jan-02 17:26N 44°09' E 028°39'0 0.0
2018-Jan-02 16:59N 44°09' E 028°39'0 0.0
2018-Jan-02 16:29N 44°09' E 028°39'0 0.0
2018-Jan-02 15:59N 44°09' E 028°39'0 0.0
2018-Jan-02 15:29N 44°09' E 028°39'0 0.0
2018-Jan-02 14:59N 44°09' E 028°39'0 0.0
2018-Jan-02 14:29N 44°09' E 028°39'0 0.0
2018-Jan-02 13:59N 44°09' E 028°39'0 0.0
2018-Jan-02 13:29N 44°09' E 028°39'0 0.0
2018-Jan-02 12:59N 44°09' E 028°39'0 0.0
2018-Jan-02 12:29N 44°09' E 028°39'0 0.0
2018-Jan-02 11:59N 44°09' E 028°39'0 0.0
2018-Jan-02 11:29N 44°09' E 028°39'0 0.0
2018-Jan-02 10:59N 44°09' E 028°39'0 0.0
2018-Jan-02 10:29N 44°09' E 028°39'0 0.0
2018-Jan-02 09:59N 44°09' E 028°39'0 0.0
2018-Jan-02 09:29N 44°09' E 028°39'0 0.0
2018-Jan-02 08:29N 44°09' E 028°39'0 0.0
2018-Jan-02 07:59N 44°09' E 028°39'0 0.0
2018-Jan-02 07:30N 44°09' E 028°39'1 1.2
2018-Jan-02 07:00N 44°09' E 028°39'2 4.9
2018-Jan-02 06:30N 44°07' E 028°41'3 6.4
2018-Jan-02 06:00N 44°05' E 028°44'3 5.2
2018-Jan-02 05:30N 44°03' E 028°46'8 7.6
2018-Jan-02 04:30N 43°58' E 028°55'4 8.5
2018-Jan-02 04:00N 43°56' E 028°60'4 8.4
2018-Jan-02 03:30N 43°54' E 029°05'4 8.6
2018-Jan-02 03:00N 43°52' E 029°10'4 8.6
2018-Jan-02 02:30N 43°50' E 029°15'16 8.5
2018-Jan-02 00:41N 43°42' E 029°34'1 8.6
2018-Jan-02 00:30N 43°42' E 029°36'6 8.6
2018-Jan-01 23:48N 43°38' E 029°43'3 8.5
2018-Jan-01 23:26N 43°37' E 029°47'4 8.6
2018-Jan-01 23:00N 43°35' E 029°51'4 8.7
2018-Jan-01 22:30N 43°32' E 029°56'  
Track history (hours):
 
Tides and Currents Weather Stations Pressure Air Temp Water Temp Dewpoint Dewpoint Depression Visibility Wind Speed Wind Dir Waves Ship Positions

Grace S

Last reported at 2018-Jan-07 06:01 UTC. Time now 2018-Jan-19 06:04 UTC.
Position N 37°15' E 026°54'.
Warning: this ship's position is 12 days out of date.

Length 70 m; draft 3.5 m.

Type: Cargo ship. MMSI: 377757000.

Date/timePositionNaut miles runAvg speedWind from/ knotsBaromVisibWave heightAir tempDewpointWater temp
2018-Jan-07 06:01N 37°15' E 026°54'1 7.8
2018-Jan-07 05:52N 37°16' E 026°53'4 7.8
2018-Jan-07 05:18N 37°20' E 026°50'16 7.6
2018-Jan-07 03:09N 37°34' E 026°39'1 7.6
2018-Jan-07 03:01N 37°35' E 026°38'4 7.7
2018-Jan-07 02:29N 37°38' E 026°36'15 7.5
2018-Jan-07 00:31N 37°52' E 026°28'  
2018-Jan-03 05:50N 43°51' E 028°45'3 8.1
2018-Jan-03 05:30N 43°54' E 028°45'4 8.0
2018-Jan-03 05:00N 43°58' E 028°44'4 8.0
2018-Jan-03 04:30N 44°02' E 028°44'4 7.8
2018-Jan-03 04:00N 44°05' E 028°42'4 7.3
2018-Jan-03 03:30N 44°09' E 028°40'1 2.7
2018-Jan-03 03:00N 44°09' E 028°39'0 0.0
2018-Jan-03 02:30N 44°09' E 028°39'0 0.0
2018-Jan-03 02:00N 44°09' E 028°39'0 0.0
2018-Jan-03 01:30N 44°09' E 028°39'0 0.0
2018-Jan-03 01:00N 44°09' E 028°39'0 0.0
2018-Jan-03 00:30N 44°09' E 028°39'0 0.0
2018-Jan-03 00:00N 44°09' E 028°39'0 0.0
2018-Jan-02 23:30N 44°09' E 028°39'0 0.0
2018-Jan-02 23:00N 44°09' E 028°39'0 0.0
2018-Jan-02 22:30N 44°09' E 028°39'0 0.0
2018-Jan-02 22:00N 44°09' E 028°39'0 0.0
2018-Jan-02 21:30N 44°09' E 028°39'0 0.0
2018-Jan-02 21:00N 44°09' E 028°39'0 0.0
2018-Jan-02 20:30N 44°09' E 028°39'0 0.0
2018-Jan-02 20:00N 44°09' E 028°39'0 0.0
2018-Jan-02 19:29N 44°09' E 028°39'0 0.0
2018-Jan-02 18:53N 44°09' E 028°39'0 0.0
2018-Jan-02 18:29N 44°09' E 028°39'0 0.0
2018-Jan-02 17:59N 44°09' E 028°39'0 0.0
2018-Jan-02 17:26N 44°09' E 028°39'0 0.0
2018-Jan-02 16:59N 44°09' E 028°39'0 0.0
2018-Jan-02 16:29N 44°09' E 028°39'0 0.0
2018-Jan-02 15:59N 44°09' E 028°39'0 0.0
2018-Jan-02 15:29N 44°09' E 028°39'0 0.0
2018-Jan-02 14:59N 44°09' E 028°39'0 0.0
2018-Jan-02 14:29N 44°09' E 028°39'0 0.0
2018-Jan-02 13:59N 44°09' E 028°39'0 0.0
2018-Jan-02 13:29N 44°09' E 028°39'0 0.0
2018-Jan-02 12:59N 44°09' E 028°39'0 0.0
2018-Jan-02 12:29N 44°09' E 028°39'0 0.0
2018-Jan-02 11:59N 44°09' E 028°39'0 0.0
2018-Jan-02 11:29N 44°09' E 028°39'0 0.0
2018-Jan-02 10:59N 44°09' E 028°39'0 0.0
2018-Jan-02 10:29N 44°09' E 028°39'0 0.0
2018-Jan-02 09:59N 44°09' E 028°39'0 0.0
2018-Jan-02 09:29N 44°09' E 028°39'0 0.0
2018-Jan-02 08:29N 44°09' E 028°39'0 0.0
2018-Jan-02 07:59N 44°09' E 028°39'0 0.0
2018-Jan-02 07:30N 44°09' E 028°39'1 1.2
2018-Jan-02 07:00N 44°09' E 028°39'2 4.9
2018-Jan-02 06:30N 44°07' E 028°41'3 6.4
2018-Jan-02 06:00N 44°05' E 028°44'3 5.2
2018-Jan-02 05:30N 44°03' E 028°46'8 7.6
2018-Jan-02 04:30N 43°58' E 028°55'4 8.5
2018-Jan-02 04:00N 43°56' E 028°60'4 8.4
2018-Jan-02 03:30N 43°54' E 029°05'4 8.6
2018-Jan-02 03:00N 43°52' E 029°10'4 8.6
2018-Jan-02 02:30N 43°50' E 029°15'16 8.5
2018-Jan-02 00:41N 43°42' E 029°34'1 8.6
2018-Jan-02 00:30N 43°42' E 029°36'6 8.6
2018-Jan-01 23:48N 43°38' E 029°43'3 8.5
2018-Jan-01 23:26N 43°37' E 029°47'4 8.6
2018-Jan-01 23:00N 43°35' E 029°51'4 8.7
2018-Jan-01 22:30N 43°32' E 029°56'  

Dump ship's entire track history